NCAR-RAP Real-Time Weather Data

Output produced by METARs form (23 June 2018  19:35 UTC)
found at http://weather.rap.ucar.edu/surface/
 
RJTO 230800Z 05009KT 4000 -SHRA BR FEW001 BKN004 BKN010 19/18 Q1003
RJTO 230740Z 07008KT 4000 -SHRA BR FEW001 SCT004 BKN020 19/18 Q1003 RMK 1ST001 4ST004 6CU020 A2963
RJTO 230721Z 06006KT 3000 -SHRA BR FEW001 BKN020 BKN030 19/18 Q1003 RMK 1ST001 5CU020 6SC030 A2964
RJTO 230700Z 06007KT 4000 SHRA BR FEW001 BKN020 BKN030 19/18 Q1003
RJTO 230634Z 06005KT 2000 +SHRA BR FEW001 SCT012 BKN020 19/18 Q1004 RMK 1ST001 3CU012 6CU020 A2965
RJTO 230615Z 04006KT 010V080 3000 -SHRA BR FEW007 SCT012 BKN020 19/18 Q1004 RMK 1ST007 3CU012 5CU020 A2965
RJTO 230600Z VRB04KT 8000 -SHRA FEW007 SCT012 BKN020 20/19 Q1004
RJTO 230532Z 03004KT 330V090 8000 -SHRA FEW009 SCT025 BKN040 19/18 Q1004 RMK 1ST009 3CU025 5SC040 A2967
RJTO 230500Z 03004KT 3500 -SHRA BR FEW004 SCT010 BKN045 20/19 Q1005
RJTO 230400Z 19003KT 130V220 4000 -SHRA BR FEW004 SCT008 BKN080 20/19 Q1006
RJTO 230300Z 14004KT 100V200 5000 -SHRA BR FEW001 SCT008 BKN100 20/19 Q1006
RJTO 230200Z VRB01KT 7000 -SHRA FEW008 SCT010 BKN100 20/19 Q1008
RJTO 230125Z 24004KT 210V270 9999 -SHRA FEW004 SCT005 BKN007 20/19 Q1009 RMK 1ST004 3ST005 5ST007 A2979
RJTO 230100Z 22004KT 190V270 9999 -SHRA FEW003 SCT004 BKN006 20/19 Q1008
RJTO 230039Z 25003KT 200V310 6000 -SHRA FEW002 SCT004 BKN007 21/20 Q1008 RMK 1ST002 3ST004 5ST007 A2978
RJTO 230019Z 13003KT 080V210 3000 SHRA BR FEW001 SCT007 BKN050 20/20 Q1008 RMK 1ST001 3ST007 5SC050 A2977
RJTO 230000Z 20007KT 3000 SHRA BR FEW001 SCT004 BKN007 20/20 Q1009
RJTO 222323Z VRB01KT 4000 -SHRA BR FEW004 SCT005 BKN007 21/20 Q1009 RMK 1ST004 3ST005 5ST007 A2981
RJTO 222300Z VRB01KT 9999 -SHRA FEW007 SCT010 BKN100 22/20 Q1009
RJTO 220800Z 19012KT 9999 FEW025 BKN/// 24/18 Q1007
RJTO 220700Z 19011KT 9999 FEW025 BKN/// 25/18 Q1007
RJTO 220600Z 20013KT 9999 FEW025 BKN/// 25/18 Q1007
RJTO 220500Z 21011KT 9999 FEW020 BKN/// 24/18 Q1007
RJTO 220400Z 22009KT 9999 FEW020 BKN/// 25/20 Q1007
RJTO 220300Z VRB04KT 9999 FEW020 BKN/// 25/20 Q1008
RJTO 220200Z 24005KT 190V300 9999 FEW020 BKN/// 24/19 Q1008
RJTO 220100Z 33003KT 280V060 9999 FEW015 SCT025 BKN/// 24/20 Q1008
RJTO 220000Z 03004KT 340V090 9999 FEW020 SCT025 24/19 Q1007
RJTO 212300Z VRB01KT 9999 FEW020 SCT/// 24/19 Q1007
RJTO 210800Z 22013KT 9999 -SHRA FEW007 SCT010 BKN130 22/21 Q1003